• Join FlightAware (Why Join?)
  • Login
  • US Flag 
03:34AM EDT


 

Airport Tracker/Info


-or-


 

Live Flight TrackerFlight Track Log ✈ IFL511 ✈ 03-May-2013 ✈ KPTK - KMQY

Flight Track Log - Related Links

Times and Time Zones

All times are in EDT time to prevent confusion due to time zone crossing. See the IFL511 flight status page for this flight to view local times or setup timezone preferences in your user account.

Time Position Orientation Groundspeed Altitude Reporting Facility
EDT Latitude Longitude Course Direction KTS MPH feet Rate Location/Type
07:58AM 42.6653 -83.4014 79° East 195 224 1,600  Level Cleveland Center
07:59AM 42.6731 -83.3481 79° East 189 217 3,300 2,400 Climbing Cleveland Center
08:00AM 42.6761 -83.2972 85° East 200 230 4,900 2,400 Climbing Cleveland Center
08:01AM 42.6886 -83.2103 79° East 237 273 7,300 2,700 Climbing Cleveland Center
08:02AM 42.6542 -83.1664 137° Southeast 186 214 10,300 2,580 Climbing Cleveland Center
08:03AM 42.5889 -83.1947 198° South 157 181 12,500 1,920 Climbing Cleveland Center
08:04AM 42.5194 -83.2256 198° South 212 244 14,200 1,740 Climbing Cleveland Center
08:05AM 42.4394 -83.2589 197° South 263 303 16,000 1,620 Climbing Cleveland Center
08:06AM 42.3658 -83.2894 197° South 305 351 17,500 1,740 Climbing Cleveland Center
08:07AM 42.2817 -83.3253 197° South 322 371 19,500 1,740 Climbing Cleveland Center
08:08AM 42.2017 -83.3583 197° South 317 365 21,000 780 Climbing Cleveland Center
08:09AM 42.1025 -83.4014 198° South 341 392 21,100 840 Climbing Cleveland Center
08:10AM 42.0078 -83.4392 197° South 363 418 22,700 1,680 Climbing Cleveland Center
08:12AM 41.8181 -83.5172 197° South 360 414 26,300 1,560 Climbing Cleveland Center
08:13AM 41.7256 -83.5547 197° South 355 409 27,400 1,080 Climbing Cleveland Center
08:14AM 41.6308 -83.5892 195° South 355 409 28,500 1,020 Climbing Cleveland Center
08:15AM 41.5300 -83.6178 192° South 361 415 29,500 960 Climbing Cleveland Center
08:16AM 41.4308 -83.6547 196° South 366 421 30,500 960 Climbing Cleveland Center
08:17AM 41.3433 -83.7281 212° Southwest 371 427 31,500 840 Climbing Cleveland Center
08:19AM 41.1628 -83.8847 213° Southwest 380 437 33,100 660 Climbing Indianapolis Center
08:20AM 41.0664 -83.9528 208° Southwest 387 445 33,600 480 Climbing Indianapolis Center
08:21AM 40.9717 -84.0178 207° Southwest 394 453 34,100 480 Climbing Indianapolis Center
08:22AM 40.8733 -84.0856 208° Southwest 396 456 34,700 480 Climbing Indianapolis Center
08:23AM 40.7747 -84.1536 208° Southwest 396 456 35,200 480 Climbing Indianapolis Center
08:24AM 40.6758 -84.2217 208° Southwest 397 457 35,700 360 Climbing Indianapolis Center
08:25AM 40.5714 -84.2794 203° Southwest 402 463 36,000 120 Climbing Indianapolis Center
08:26AM 40.4481 -84.3472 203° Southwest 408 470 36,000 -60 Level Indianapolis Center
08:27AM 40.3394 -84.4064 203° Southwest 418 481 35,900 -60 Descending Indianapolis Center
08:28AM 40.2292 -84.4667 203° Southwest 425 489 35,900  Level Indianapolis Center
08:29AM 40.1183 -84.5264 202° Southwest 427 491 35,900  Level Indianapolis Center
08:30AM 40.0053 -84.5875 202° Southwest 434 499 35,900  Level Indianapolis Center
08:31AM 39.8942 -84.6467 202° Southwest 433 498 35,900  Level Indianapolis Center
08:32AM 39.7839 -84.7061 203° Southwest 429 494 35,900  Level Indianapolis Center
08:33AM 39.6747 -84.7650 203° Southwest 425 489 35,900  Level Indianapolis Center
08:34AM 39.5633 -84.8239 202° Southwest 427 491 35,900  Level Indianapolis Center
08:35AM 39.4542 -84.8817 202° Southwest 423 487 35,900  Level Indianapolis Center
08:36AM 39.3486 -84.9378 202° Southwest 422 486 35,900  Level Indianapolis Center
08:37AM 39.2192 -85.0058 202° Southwest 417 480 35,900  Level Indianapolis Center
08:38AM 39.1111 -85.0619 202° Southwest 419 482 36,000  Climbing Indianapolis Center
08:39AM 39.0039 -85.1181 202° Southwest 416 479 36,000  Level Indianapolis Center
08:40AM 38.8969 -85.1750 203° Southwest 416 479 36,000  Level Indianapolis Center
08:41AM 38.7892 -85.2297 202° Southwest 416 479 36,000  Level Indianapolis Center
08:42AM 38.6803 -85.2789 199° South 415 478 36,000  Level Indianapolis Center
08:43AM 38.5603 -85.3117 192° South 415 478 36,000  Level Indianapolis Center
08:44AM 38.4461 -85.3436 192° South 416 479 36,000  Level Indianapolis Center
08:45AM 38.3328 -85.3767 193° South 415 478 36,000 -240 Level Indianapolis Center
08:46AM 38.2186 -85.4086 192° South 416 479 35,600 -540 Descending Indianapolis Center
08:47AM 38.1003 -85.4414 192° South 427 491 35,000 -360 Descending Indianapolis Center
08:48AM 37.9831 -85.4750 193° South 430 495 34,900 -1,020 Descending Indianapolis Center
08:49AM 37.8625 -85.5089 193° South 433 498 33,000 -1,800 Descending Indianapolis Center
08:50AM 37.7086 -85.5517 192° South 460 529 31,300 -1,740 Descending Indianapolis Center
08:51AM 37.5808 -85.5883 193° South 467 537 29,500 -1,800 Descending Indianapolis Center
08:52AM 37.4508 -85.6225 192° South 473 544 27,700 -2,220 Descending Indianapolis Center
08:53AM 37.3175 -85.6581 192° South 484 557 25,000 -2,580 Descending Indianapolis Center
08:54AM 37.2539 -85.6742 191° South 486 559 23,700 -2,640 Descending Memphis Center
08:55AM 37.1261 -85.7103 193° South 481 554 21,000 -2,460 Descending Memphis Center
08:56AM 37.0000 -85.7358 189° South 468 539 18,800 -2,040 Descending Memphis Center
08:57AM 36.8675 -85.7564 187° South 456 525 17,000 -1,920 Descending Memphis Center
08:58AM 36.7492 -85.7711 186° South 440 506 15,000 -1,920 Descending Memphis Center
08:59AM 36.6433 -85.7875 187° South 435 501 13,200 -1,800 Descending Memphis Center
09:00AM 36.5356 -85.8581 208° Southwest 380 437 11,500 -1,140 Descending Memphis Center
09:01AM 36.4794 -85.9772 240° Southwest 389 448 11,000 -300 Descending Memphis Center
09:02AM 36.4289 -86.0858 240° Southwest 378 435 10,900 -1,020 Descending Memphis Center
09:03AM 36.3861 -86.1706 238° Southwest 327 376 9,000 -1,980 Descending Memphis Center
09:04AM 36.3386 -86.2503 234° Southwest 296 341 7,000 -1,860 Descending Memphis Center
09:05AM 36.2883 -86.3017 219° Southwest 274 315 5,300 -1,500 Descending Memphis Center
09:06AM 36.2419 -86.3503 220° Southwest 247 284 4,000 -1,020 Descending Memphis Center
09:07AM 36.2017 -86.3986 224° Southwest 218 251 3,300 -780 Descending Memphis Center
09:08AM 36.1594 -86.4444 221° Southwest 213 245 2,500 -420 Descending Memphis Center
09:09AM 36.1192 -86.4900 222° Southwest 201 231 2,500 -180 Level Memphis Center
09:10AM 36.0869 -86.5300 225° Southwest 181 208 2,200 -480 Descending Memphis Center
09:11AM 36.0544 -86.5547 212° Southwest 156 180 1,600 -720 Descending Memphis Center
09:12AM 36.0247 -86.5381 156° South 124 143 800 -420 Descending Memphis Center
09:13AM 35.9961 -86.5600 212° Southwest 124 143 800  Level Memphis Center